This is the latest recevied weather packets stored in our database for station/object KY4EF. If no packets are shown the sender has not sent any weather packets the latest 10 day(s).
| Time | Temp. | Humidity | Pressure | Rain* | Wind** | Luminosity | Snow |
|---|---|---|---|---|---|---|---|
| 1777405182 | 23.89° C | 67% | 1017.6 hPa | 0 mm | - | 197 W/m² | - |
| 1777404879 | 25° C | 64% | 1017.5 hPa | 0 mm | - | 681 W/m² | - |
| 1777404576 | 24.44° C | 64% | 1017.4 hPa | 0 mm | - | 200 W/m² | - |
| 1777404273 | 23.33° C | 69% | 1017.4 hPa | 0 mm | - | 702 W/m² | - |
| 1777403968 | 22.22° C | 73% | 1017.8 hPa | 0 mm | - | 711 W/m² | - |
| 1777403668 | 21.67° C | 74% | 1017.6 hPa | 0 mm | - | 508 W/m² | - |
| 1777403361 | 22.22° C | 74% | 1017.8 hPa | 0 mm | - | 680 W/m² | - |
| 1777403056 | 22.78° C | 66% | 1017.7 hPa | 0 mm | - | 642 W/m² | - |
| 1777402753 | 22.22° C | 73% | 1017.7 hPa | 0 mm | - | 676 W/m² | - |
| 1777402448 | 22.22° C | 72% | 1017.8 hPa | 0 mm | - | 706 W/m² | - |
| 1777402146 | 23.33° C | 69% | 1017.9 hPa | 0 mm | - | 627 W/m² | - |
| 1777401841 | 21.67° C | 73% | 1017.9 hPa | 0 mm | - | 613 W/m² | - |
| 1777401541 | 21.67° C | 75% | 1018.2 hPa | 0 mm | - | 652 W/m² | - |
| 1777401236 | 21.11° C | 75% | 1018.3 hPa | 0 mm | - | 350 W/m² | - |
| 1777400932 | 21.11° C | 81% | 1018.4 hPa | 0 mm | - | 273 W/m² | - |
| 1777400628 | 20.56° C | 76% | 1018.6 hPa | 0 mm | - | 270 W/m² | - |
| 1777400327 | 21.67° C | 73% | 1018.3 hPa | 0 mm | - | 281 W/m² | - |
| 1777400021 | 22.78° C | 73% | 1018.3 hPa | 0 mm | - | 334 W/m² | - |
| 1777399719 | 23.33° C | 67% | 1018.1 hPa | 0 mm | - | 782 W/m² | - |
| 1777399416 | 23.33° C | 68% | 1018.2 hPa | 0 mm | - | 777 W/m² | - |
| 1777399113 | 23.33° C | 68% | 1018.1 hPa | 0 mm | - | 793 W/m² | - |
| 1777398810 | 22.78° C | 72% | 1018.3 hPa | 0 mm | - | 742 W/m² | - |
| 1777398502 | 22.22° C | 75% | 1018.4 hPa | 0 mm | - | 771 W/m² | - |
| 1777398198 | 21.67° C | 71% | 1018.5 hPa | 0 mm | - | 689 W/m² | - |
| 1777397895 | 21.67° C | 73% | 1018.5 hPa | 0 mm | - | 777 W/m² | - |
* Rain latest hour (hover to see other rain measurements)
** Current wind speed in m/s (hover to see current wind gust speed)